Ana Sayfa
METAR-TAF:

METAR-TAF

Havaalanları :

Pottstown Limerick Airport

Pottstown, Pensilvanya, Amerika Birleşik Devletleri

Enlem: 40-14-18N, Boylam: 075-33-26W, yükseklik: 89 m

Güncel hava durumu gözlemi

Rapor saat 09:54 UTC de 1 saat ve 2 dakika önce yapıldı.
Sakin rüzgar
Sıcaklık 9°C
Nem 87%
Basınç 1017 hPa
Görüş mesafesi: 14.5 km
6000 ft yükseklikte çok bulutlu

METAR: KPTW 050954Z AUTO 00000KT 9SM OVC060 09/07 A3004 RMK AO2 SLP172 T00940067

Saat: 06:56 (10:56 UTC)


TAF: eksik

4.000'den fazla havaalanı için hava durumu gözlemleri ve tahminleri (METAR ve TAF raporları).

Kullanılabilir istasyonlar harita üzerinde sarı ve kırmızı noktalarla gösterilir.

İstasyonun adını görmek için fareyi noktanın üzerinde gezdirin.

Sonrasında hava gözlem ve tahminlerini görmek için tıklayın.

Haritayı değiştirmek için: yaklaştırmak için siyah artı işaretli yeşil düğmeye ve uzaklaştırmak için de eksi işaretli düğmeye hızla tıklayın; bitişik haritalar için yeşil okları kullanın.


METAR-TAF: